Time;durP1;ratioP1;P1;durP2;ratioP2;P2;SDS_P1;SDS_P2;PMS_P1;PMS_P2;Temp;Humidity;BMP_temperature;BMP_pressure;BME280_temperature;BME280_humidity;BME280_pressure;Samples;Min_cycle;Max_cycle;Signal;HPM_P1;HPM_P2
2023/09/14 00:00:13;;;;;;;;;;;13.20;99.90;;;;;;5110919;27;19946;-72
2023/09/14 00:02:38;;;;;;;;;;;13.20;99.90;;;;;;5110851;27;19927;-71
2023/09/14 00:05:04;;;;;;;;;;;13.20;99.90;;;;;;5112232;27;20439;-72
2023/09/14 00:07:30;;;;;;;;;;;13.20;99.90;;;;;;5111015;27;20301;-72
2023/09/14 00:09:55;;;;;;;;;;;13.20;99.90;;;;;;5110614;28;20014;-72
2023/09/14 00:12:21;;;;;;;;;;;13.20;1.00;;;;;;5110259;28;19928;-72
2023/09/14 00:14:46;;;;;;;;;;;13.20;1.00;;;;;;5110355;28;19942;-71
2023/09/14 00:17:12;;;;;;;;;;;13.10;1.00;;;;;;5117981;27;19954;-72
2023/09/14 00:19:37;;;;;;;;;;;13.10;1.00;;;;;;5116069;27;20343;-71
2023/09/14 00:22:03;;;;;;;;;;;13.10;1.00;;;;;;5117347;27;20389;-72
2023/09/14 00:24:29;;;;;;;;;;;13.10;4.50;;;;;;5128689;27;19980;-72
2023/09/14 00:26:54;;;;;;;;;;;13.10;9.00;;;;;;5129778;27;19924;-71
2023/09/14 00:29:20;;;;;;;;;;;13.10;9.80;;;;;;5115655;27;19970;-72
2023/09/14 00:31:46;;;;;;;;;;;13.10;32.00;;;;;;5109975;28;19924;-72
2023/09/14 00:34:11;;;;;;;;;;;13.10;52.30;;;;;;5110372;27;19927;-71
2023/09/14 00:36:37;;;;;;;;;;;13.10;93.30;;;;;;5110365;28;19928;-72
2023/09/14 00:39:03;;;;;;;;;;;13.10;99.90;;;;;;5111157;28;20386;-71
2023/09/14 00:41:29;;;;;;;;;;;13.10;99.90;;;;;;5096700;28;20394;-72
2023/09/14 00:43:54;;;;;;;;;;;13.20;99.90;;;;;;5116774;28;19931;-71
2023/09/14 00:46:20;;;;;;;;;;;13.20;99.90;;;;;;5110372;28;19924;-71
2023/09/14 00:48:46;;;;;;;;;;;13.20;99.90;;;;;;5123523;28;20016;-71
2023/09/14 00:51:12;;;;;;;;;;;13.20;99.90;;;;;;5115546;28;19927;-72
2023/09/14 00:53:38;;;;;;;;;;;13.30;99.90;;;;;;5092098;28;20404;-71
2023/09/14 00:56:04;;;;;;;;;;;13.30;99.90;;;;;;5115206;28;19923;-71
2023/09/14 00:58:29;;;;;;;;;;;13.30;99.90;;;;;;5111322;28;19923;-72
2023/09/14 01:00:57;;;;;;;;;;;13.30;99.90;;;;;;5107383;28;19947;-72
2023/09/14 01:03:23;;;;;;;;;;;13.40;99.90;;;;;;5114304;28;19927;-71
2023/09/14 01:05:49;;;;;;;;;;;13.40;99.90;;;;;;5109732;28;19931;-72
2023/09/14 01:08:15;;;;;;;;;;;13.40;99.90;;;;;;5109548;28;19924;-72
2023/09/14 01:10:40;;;;;;;;;;;13.40;99.90;;;;;;5109161;28;19938;-72
2023/09/14 01:13:09;;;;;;;;;;;13.50;99.90;;;;;;5109678;28;19924;-72
2023/09/14 01:15:40;;;;;;;;;;;13.50;99.90;;;;;;5109946;28;19947;-72
2023/09/14 01:18:11;;;;;;;;;;;13.50;99.90;;;;;;5119528;27;20005;-72
2023/09/14 01:20:55;;;;;;;;;;;13.50;99.90;;;;;;5094729;28;20385;-72
2023/09/14 01:23:21;;;;;;;;;;;13.50;99.90;;;;;;5113766;28;19986;-71
2023/09/14 01:25:47;;;;;;;;;;;13.50;99.90;;;;;;5113779;27;19971;-71
2023/09/14 01:28:13;;;;;;;;;;;13.50;99.90;;;;;;5113348;27;19973;-70
2023/09/14 01:30:40;;;;;;;;;;;13.50;99.90;;;;;;5120617;27;19978;-71
2023/09/14 01:33:07;;;;;;;;;;;13.50;99.90;;;;;;5120016;27;19924;-71
2023/09/14 01:35:40;;;;;;;;;;;13.50;99.90;;;;;;5120443;27;19924;-71
2023/09/14 01:38:06;;;;;;;;;;;13.50;99.90;;;;;;5108194;27;20540;-71
2023/09/14 01:40:33;;;;;;;;;;;13.50;99.90;;;;;;5114108;27;19924;-71
2023/09/14 01:42:59;;;;;;;;;;;13.50;99.90;;;;;;5124001;27;20437;-71
2023/09/14 01:45:25;;;;;;;;;;;13.50;99.90;;;;;;5118251;27;20034;-71
2023/09/14 01:47:52;;;;;;;;;;;13.50;99.90;;;;;;5120094;27;19949;-71
2023/09/14 01:50:17;;;;;;;;;;;13.50;99.90;;;;;;5108159;27;19930;-71
2023/09/14 01:52:43;;;;;;;;;;;13.50;95.50;;;;;;5113182;28;19924;-71
2023/09/14 01:55:10;;;;;;;;;;;13.50;84.60;;;;;;5089063;27;19973;-71
2023/09/14 01:57:35;;;;;;;;;;;13.40;96.90;;;;;;5094835;28;19947;-71
2023/09/14 02:00:01;;;;;;;;;;;13.40;95.60;;;;;;5120357;27;19924;-71
2023/09/14 02:02:27;;;;;;;;;;;13.40;99.90;;;;;;5119896;27;19923;-71
2023/09/14 02:04:52;;;;;;;;;;;13.40;93.40;;;;;;5114849;27;20382;-71
2023/09/14 02:07:18;;;;;;;;;;;13.40;99.90;;;;;;5119785;27;19930;-71
2023/09/14 02:09:43;;;;;;;;;;;13.30;99.90;;;;;;5119852;27;19924;-71
2023/09/14 02:12:09;;;;;;;;;;;13.30;99.90;;;;;;5127252;27;19968;-71
2023/09/14 02:14:34;;;;;;;;;;;13.30;99.90;;;;;;5095769;27;19924;-71
2023/09/14 02:17:00;;;;;;;;;;;13.30;99.90;;;;;;5120839;27;19946;-70
2023/09/14 02:19:25;;;;;;;;;;;13.20;99.90;;;;;;5119679;27;20395;-71
2023/09/14 02:21:51;;;;;;;;;;;13.30;99.90;;;;;;5120063;27;19980;-71
2023/09/14 02:24:16;;;;;;;;;;;13.20;99.90;;;;;;5112723;28;19927;-71
2023/09/14 02:26:42;;;;;;;;;;;13.20;99.90;;;;;;5118797;27;20301;-71
2023/09/14 02:29:07;;;;;;;;;;;13.30;99.90;;;;;;5118665;27;19931;-71
2023/09/14 02:31:33;;;;;;;;;;;13.20;99.90;;;;;;5118785;27;19923;-70
2023/09/14 02:33:59;;;;;;;;;;;13.30;99.90;;;;;;5118584;27;19930;-71
2023/09/14 02:36:26;;;;;;;;;;;13.30;99.90;;;;;;5120438;27;19927;-71
2023/09/14 02:38:51;;;;;;;;;;;13.30;99.90;;;;;;5118111;27;19923;-71
2023/09/14 02:41:17;;;;;;;;;;;13.30;99.90;;;;;;5124889;27;19972;-71
2023/09/14 02:43:43;;;;;;;;;;;13.30;99.90;;;;;;5099857;28;19928;-71
2023/09/14 02:46:08;;;;;;;;;;;13.30;99.90;;;;;;5118102;27;20270;-71
2023/09/14 02:48:34;;;;;;;;;;;13.40;99.90;;;;;;5111444;28;19924;-71
2023/09/14 02:50:59;;;;;;;;;;;13.40;99.90;;;;;;5111854;27;19979;-71
2023/09/14 02:53:25;;;;;;;;;;;13.40;99.90;;;;;;5094291;28;19923;-71
2023/09/14 02:55:50;;;;;;;;;;;13.40;99.90;;;;;;5117624;27;20448;-71
2023/09/14 02:58:16;;;;;;;;;;;13.30;99.90;;;;;;5119334;27;19924;-71
2023/09/14 03:00:41;;;;;;;;;;;13.40;99.90;;;;;;5124530;27;20378;-71
2023/09/14 03:03:08;;;;;;;;;;;13.30;99.90;;;;;;5112388;27;19931;-71
2023/09/14 03:05:34;;;;;;;;;;;13.40;99.90;;;;;;5122941;27;19927;-71
2023/09/14 03:07:59;;;;;;;;;;;13.40;99.90;;;;;;5121687;27;19970;-71
2023/09/14 03:10:25;;;;;;;;;;;13.30;99.90;;;;;;5125888;27;19923;-71
2023/09/14 03:12:50;;;;;;;;;;;13.30;99.90;;;;;;5103891;28;19924;-71
2023/09/14 03:15:16;;;;;;;;;;;13.30;99.90;;;;;;5126005;27;19963;-71
2023/09/14 03:17:41;;;;;;;;;;;13.30;99.90;;;;;;5121738;27;19963;-71
2023/09/14 03:20:07;;;;;;;;;;;13.30;99.90;;;;;;5125467;27;20433;-71
2023/09/14 03:22:33;;;;;;;;;;;13.20;99.90;;;;;;5121543;27;19951;-71
2023/09/14 03:24:58;;;;;;;;;;;13.20;99.90;;;;;;5119492;27;19938;-71
2023/09/14 03:27:24;;;;;;;;;;;13.10;99.90;;;;;;5119755;27;19927;-70
2023/09/14 03:29:49;;;;;;;;;;;13.10;99.90;;;;;;5107314;27;19975;-71
2023/09/14 03:32:15;;;;;;;;;;;13.10;99.90;;;;;;5113901;27;19924;-70
2023/09/14 03:34:40;;;;;;;;;;;13.00;99.90;;;;;;5110391;27;19931;-71
2023/09/14 03:37:06;;;;;;;;;;;12.90;99.90;;;;;;5111074;28;19931;-71
2023/09/14 03:39:31;;;;;;;;;;;12.90;99.90;;;;;;5110690;27;19931;-71
2023/09/14 03:41:57;;;;;;;;;;;12.90;99.90;;;;;;5111244;28;19924;-71
2023/09/14 03:44:23;;;;;;;;;;;12.80;99.90;;;;;;5110767;28;20007;-71
2023/09/14 03:46:48;;;;;;;;;;;12.80;99.90;;;;;;5110853;27;19930;-71
2023/09/14 03:49:14;;;;;;;;;;;12.70;99.90;;;;;;5111381;27;20416;-71
2023/09/14 03:51:39;;;;;;;;;;;12.70;99.90;;;;;;5117772;27;19988;-71
2023/09/14 03:54:05;;;;;;;;;;;12.70;99.90;;;;;;5117622;27;19924;-71
2023/09/14 03:56:30;;;;;;;;;;;12.70;99.90;;;;;;5110342;28;20289;-71
2023/09/14 03:58:56;;;;;;;;;;;12.70;99.90;;;;;;5122464;27;20404;-72
2023/09/14 04:01:21;;;;;;;;;;;12.60;99.90;;;;;;5112084;27;20416;-72
2023/09/14 04:03:47;;;;;;;;;;;12.60;99.90;;;;;;5117713;27;19924;-71
2023/09/14 04:06:12;;;;;;;;;;;12.60;99.90;;;;;;5119153;27;19924;-71
2023/09/14 04:08:38;;;;;;;;;;;12.60;99.90;;;;;;5086721;27;19927;-71
2023/09/14 04:11:03;;;;;;;;;;;12.50;99.90;;;;;;5112363;28;19959;-71
2023/09/14 04:13:33;;;;;;;;;;;12.50;99.90;;;;;;5110346;28;19980;-71
2023/09/14 04:15:59;;;;;;;;;;;12.50;99.90;;;;;;5117873;27;19923;-71
2023/09/14 04:18:25;;;;;;;;;;;12.50;99.90;;;;;;5110361;28;19927;-71
2023/09/14 04:20:51;;;;;;;;;;;12.40;99.90;;;;;;5110193;28;19927;-71
2023/09/14 04:23:17;;;;;;;;;;;12.40;99.90;;;;;;5110501;28;19946;-70
2023/09/14 04:25:46;;;;;;;;;;;12.40;99.90;;;;;;5110250;28;19977;-71
2023/09/14 04:28:12;;;;;;;;;;;12.40;99.90;;;;;;5110879;27;19923;-71
2023/09/14 04:30:45;;;;;;;;;;;12.40;99.90;;;;;;5110016;28;20860;-71
2023/09/14 04:33:11;;;;;;;;;;;12.30;99.90;;;;;;5092171;28;19931;-71
2023/09/14 04:35:37;;;;;;;;;;;12.30;99.90;;;;;;5109793;28;19927;-71
2023/09/14 04:38:02;;;;;;;;;;;12.30;99.90;;;;;;5110901;28;20402;-71
2023/09/14 04:40:28;;;;;;;;;;;12.30;99.90;;;;;;5110353;28;19924;-72
2023/09/14 04:42:53;;;;;;;;;;;12.20;99.90;;;;;;5110709;28;19924;-71
2023/09/14 04:45:19;;;;;;;;;;;12.10;99.90;;;;;;5110246;28;19928;-71
2023/09/14 04:47:44;;;;;;;;;;;12.10;99.90;;;;;;5110841;28;20333;-71
2023/09/14 04:50:10;;;;;;;;;;;12.20;99.90;;;;;;5110710;28;20386;-71
2023/09/14 04:52:35;;;;;;;;;;;12.10;99.90;;;;;;5112034;28;19958;-71
2023/09/14 04:55:01;;;;;;;;;;;12.10;99.90;;;;;;5114634;27;20396;-71
2023/09/14 04:57:26;;;;;;;;;;;12.10;99.90;;;;;;5114436;27;19924;-71
2023/09/14 04:59:52;;;;;;;;;;;12.10;99.90;;;;;;5114237;27;19923;-71
2023/09/14 05:02:17;;;;;;;;;;;12.10;99.90;;;;;;5114548;27;20017;-71
2023/09/14 05:04:43;;;;;;;;;;;12.10;99.90;;;;;;5114735;27;19980;-71
2023/09/14 05:07:08;;;;;;;;;;;12.10;99.90;;;;;;5115335;27;20045;-71
2023/09/14 05:09:34;;;;;;;;;;;12.10;99.90;;;;;;5114613;27;19923;-71
2023/09/14 05:11:59;;;;;;;;;;;12.00;99.90;;;;;;5123225;27;20000;-71
2023/09/14 05:14:25;;;;;;;;;;;12.00;99.90;;;;;;5114370;27;20381;-72
2023/09/14 05:16:50;;;;;;;;;;;12.00;99.90;;;;;;5114670;27;20523;-71
2023/09/14 05:19:17;;;;;;;;;;;12.00;99.90;;;;;;5114141;27;19924;-71
2023/09/14 05:21:42;;;;;;;;;;;12.00;99.90;;;;;;5115607;27;20002;-71
2023/09/14 05:24:08;;;;;;;;;;;12.00;99.90;;;;;;5114143;27;20015;-71
2023/09/14 05:26:33;;;;;;;;;;;12.00;99.90;;;;;;5115892;27;20284;-70
2023/09/14 05:28:59;;;;;;;;;;;12.00;99.90;;;;;;5114817;27;19938;-72
2023/09/14 05:31:24;;;;;;;;;;;12.00;99.90;;;;;;5110621;27;19927;-72
2023/09/14 05:33:50;;;;;;;;;;;12.00;99.90;;;;;;5112756;27;20023;-72
2023/09/14 05:36:15;;;;;;;;;;;12.00;99.90;;;;;;5113069;28;19924;-72
2023/09/14 05:38:41;;;;;;;;;;;12.00;1.00;;;;;;5113919;27;20305;-72
2023/09/14 05:41:06;;;;;;;;;;;12.00;1.00;;;;;;5096801;28;19978;-72
2023/09/14 05:43:32;;;;;;;;;;;12.10;1.00;;;;;;5113772;27;19930;-72
2023/09/14 05:45:59;;;;;;;;;;;12.10;1.00;;;;;;5114037;27;20596;-72
2023/09/14 05:48:24;;;;;;;;;;;12.10;1.00;;;;;;5113388;27;19923;-72
2023/09/14 05:50:50;;;;;;;;;;;12.10;1.00;;;;;;5111878;27;19930;-72
2023/09/14 05:53:15;;;;;;;;;;;12.20;1.00;;;;;;5114876;27;19930;-72
2023/09/14 05:55:41;;;;;;;;;;;12.20;1.00;;;;;;5117470;27;20698;-72
2023/09/14 05:58:06;;;;;;;;;;;12.20;1.00;;;;;;5122211;27;19932;-72
2023/09/14 06:00:32;;;;;;;;;;;12.30;1.00;;;;;;5117152;27;20014;-72
2023/09/14 06:02:58;;;;;;;;;;;12.30;1.00;;;;;;5122221;27;20336;-72
2023/09/14 06:05:24;;;;;;;;;;;12.30;1.00;;;;;;5106346;27;19924;-72
2023/09/14 06:07:49;;;;;;;;;;;12.40;1.00;;;;;;5122280;27;19928;-72
2023/09/14 06:10:15;;;;;;;;;;;12.40;1.00;;;;;;5124634;27;19932;-72
2023/09/14 06:12:40;;;;;;;;;;;12.50;1.00;;;;;;5122792;27;20744;-72
2023/09/14 06:15:06;;;;;;;;;;;12.50;1.00;;;;;;5117793;27;19924;-72
2023/09/14 06:17:32;;;;;;;;;;;12.60;1.00;;;;;;5122964;27;20014;-72
2023/09/14 06:19:57;;;;;;;;;;;12.60;1.00;;;;;;5094114;28;19928;-71
2023/09/14 06:22:22;;;;;;;;;;;12.60;1.00;;;;;;5119665;27;20301;-72
2023/09/14 06:24:48;;;;;;;;;;;12.70;1.00;;;;;;5116864;27;19985;-72
2023/09/14 06:27:13;;;;;;;;;;;12.70;1.00;;;;;;5123241;27;19928;-72
2023/09/14 06:29:39;;;;;;;;;;;12.70;1.00;;;;;;5123922;27;19924;-72
2023/09/14 06:32:05;;;;;;;;;;;12.80;1.00;;;;;;5123815;27;19924;-72
2023/09/14 06:34:30;;;;;;;;;;;12.80;99.90;;;;;;5124522;27;19924;-72
2023/09/14 06:36:56;;;;;;;;;;;12.90;1.00;;;;;;5124142;27;19978;-72
2023/09/14 06:39:21;;;;;;;;;;;12.90;1.00;;;;;;5123821;27;20026;-72
2023/09/14 06:41:47;;;;;;;;;;;13.00;1.00;;;;;;5104605;28;19923;-72
2023/09/14 06:44:18;;;;;;;;;;;12.90;1.00;;;;;;5098033;27;19923;-72
2023/09/14 06:46:45;;;;;;;;;;;13.00;1.00;;;;;;5114641;27;19925;-71
2023/09/14 06:49:11;;;;;;;;;;;13.10;1.00;;;;;;5119798;27;19974;-72
2023/09/14 06:51:36;;;;;;;;;;;13.00;1.00;;;;;;5111472;28;20046;-72
2023/09/14 06:54:02;;;;;;;;;;;13.10;1.00;;;;;;5111098;28;20456;-72
2023/09/14 06:56:27;;;;;;;;;;;13.10;1.00;;;;;;5112164;28;20030;-72
2023/09/14 06:58:53;;;;;;;;;;;13.20;1.00;;;;;;5111488;27;20015;-72
2023/09/14 07:01:20;;;;;;;;;;;13.20;1.00;;;;;;5112051;27;20335;-72
2023/09/14 07:03:45;;;;;;;;;;;13.20;99.90;;;;;;5112001;27;19928;-72
2023/09/14 07:06:11;;;;;;;;;;;13.30;1.00;;;;;;5111925;28;19927;-72
2023/09/14 07:08:40;;;;;;;;;;;13.30;1.00;;;;;;5093801;28;19927;-72
2023/09/14 07:11:06;;;;;;;;;;;13.40;1.00;;;;;;5111623;27;20010;-72
2023/09/14 07:13:31;;;;;;;;;;;13.40;1.00;;;;;;5112227;27;20012;-72
2023/09/14 07:15:57;;;;;;;;;;;13.50;1.00;;;;;;5110549;28;19967;-72
2023/09/14 07:18:26;;;;;;;;;;;13.50;99.90;;;;;;5112413;27;19923;-72
2023/09/14 07:20:52;;;;;;;;;;;13.60;99.90;;;;;;5111404;27;20136;-72
2023/09/14 07:23:18;;;;;;;;;;;13.70;99.90;;;;;;5111867;28;19927;-72
2023/09/14 07:25:43;;;;;;;;;;;13.80;99.90;;;;;;5111439;27;19924;-72
2023/09/14 07:28:09;;;;;;;;;;;13.80;99.90;;;;;;5112413;27;19924;-71
2023/09/14 07:30:35;;;;;;;;;;;14.00;99.90;;;;;;5111096;27;19963;-71
2023/09/14 07:33:00;;;;;;;;;;;14.00;99.90;;;;;;5112652;27;19977;-71
2023/09/14 07:35:26;;;;;;;;;;;14.10;99.90;;;;;;5110842;27;19969;-71
2023/09/14 07:37:51;;;;;;;;;;;14.20;65.40;;;;;;5111408;27;19931;-71
2023/09/14 07:40:17;;;;;;;;;;;14.30;7.70;;;;;;5110213;28;19932;-71
2023/09/14 07:42:42;;;;;;;;;;;14.30;1.00;;;;;;5110022;27;19978;-71
2023/09/14 07:45:08;;;;;;;;;;;14.40;1.00;;;;;;5111256;27;20006;-71
2023/09/14 07:47:33;;;;;;;;;;;14.50;99.90;;;;;;5111763;27;20336;-71
2023/09/14 07:49:59;;;;;;;;;;;14.50;99.90;;;;;;5111220;27;19928;-71
2023/09/14 07:52:25;;;;;;;;;;;14.60;1.00;;;;;;5115502;27;19928;-71
2023/09/14 07:54:50;;;;;;;;;;;14.60;1.00;;;;;;5125215;27;19923;-71
2023/09/14 07:57:16;;;;;;;;;;;14.70;1.00;;;;;;5106398;27;19970;-71
2023/09/14 07:59:41;;;;;;;;;;;14.70;1.00;;;;;;5106457;28;20057;-71
2023/09/14 08:02:08;;;;;;;;;;;14.80;99.90;;;;;;5106340;27;20386;-71
2023/09/14 08:04:34;;;;;;;;;;;14.90;99.90;;;;;;5124788;27;19973;-71
2023/09/14 08:06:59;;;;;;;;;;;15.10;1.00;;;;;;5106256;27;20346;-71
2023/09/14 08:09:26;;;;;;;;;;;15.20;99.90;;;;;;5124652;27;19927;-71
2023/09/14 08:11:51;;;;;;;;;;;15.30;49.70;;;;;;5120483;27;19923;-71
2023/09/14 08:14:17;;;;;;;;;;;15.50;91.30;;;;;;5091742;28;19924;-71
2023/09/14 08:16:42;;;;;;;;;;;15.60;99.90;;;;;;5110902;28;19968;-71
2023/09/14 08:19:08;;;;;;;;;;;15.70;99.90;;;;;;5101566;27;19958;-71
2023/09/14 08:21:33;;;;;;;;;;;15.80;99.90;;;;;;5124912;27;19937;-71
2023/09/14 08:23:59;;;;;;;;;;;15.90;1.00;;;;;;5126017;27;20304;-71
2023/09/14 08:26:24;;;;;;;;;;;16.00;99.90;;;;;;5125404;27;19927;-71
2023/09/14 08:28:51;;;;;;;;;;;16.20;99.90;;;;;;5126931;27;19934;-71
2023/09/14 08:31:16;;;;;;;;;;;16.20;1.00;;;;;;5126199;27;19923;-71
2023/09/14 08:33:42;;;;;;;;;;;16.30;99.30;;;;;;5126039;27;19927;-71
2023/09/14 08:36:07;;;;;;;;;;;16.30;1.00;;;;;;5126414;27;19927;-71
2023/09/14 08:38:33;;;;;;;;;;;16.40;1.00;;;;;;5127622;27;20614;-71
2023/09/14 08:41:00;;;;;;;;;;;16.40;99.90;;;;;;5091821;28;19928;-71
2023/09/14 08:43:27;;;;;;;;;;;16.50;99.90;;;;;;5109649;28;19928;-70
2023/09/14 08:45:52;;;;;;;;;;;16.50;99.90;;;;;;5109925;28;19924;-71
2023/09/14 08:48:22;;;;;;;;;;;16.50;99.90;;;;;;5110016;28;20008;-71
2023/09/14 08:50:48;;;;;;;;;;;16.60;90.70;;;;;;5110205;28;19931;-72
2023/09/14 08:53:14;;;;;;;;;;;16.60;93.60;;;;;;5116816;28;19930;-71
2023/09/14 08:55:40;;;;;;;;;;;16.60;1.00;;;;;;5116306;28;19927;-71
2023/09/14 08:58:05;;;;;;;;;;;16.60;1.00;;;;;;5110003;28;20015;-71
2023/09/14 09:00:31;;;;;;;;;;;16.60;1.00;;;;;;5110092;28;19923;-71
2023/09/14 09:02:57;;;;;;;;;;;16.60;6.50;;;;;;5109979;28;19931;-71
2023/09/14 09:05:26;;;;;;;;;;;16.70;4.10;;;;;;5109848;28;20010;-71
2023/09/14 09:07:52;;;;;;;;;;;16.70;86.30;;;;;;5110085;28;19931;-71
2023/09/14 09:10:22;;;;;;;;;;;16.80;1.00;;;;;;5110395;28;19966;-70
2023/09/14 09:12:49;;;;;;;;;;;16.90;1.00;;;;;;5109044;28;20024;-70
2023/09/14 09:15:15;;;;;;;;;;;17.20;1.00;;;;;;5109393;28;19985;-71
2023/09/14 09:17:41;;;;;;;;;;;18.00;1.00;;;;;;5109272;28;19928;-71
2023/09/14 09:20:21;;;;;;;;;;;18.70;99.90;;;;;;5110178;28;19981;-71
2023/09/14 09:22:47;;;;;;;;;;;19.70;99.90;;;;;;5110135;28;19931;-71
2023/09/14 09:25:12;;;;;;;;;;;20.60;1.00;;;;;;5117413;28;20373;-71
2023/09/14 09:27:39;;;;;;;;;;;21.40;99.90;;;;;;5118683;28;20016;-72
2023/09/14 09:30:05;;;;;;;;;;;22.00;99.90;;;;;;5125064;28;19924;-71
2023/09/14 09:32:31;;;;;;;;;;;22.40;99.90;;;;;;5118714;28;20301;-72
2023/09/14 09:35:00;;;;;;;;;;;22.80;99.90;;;;;;5116765;28;19928;-71
2023/09/14 09:37:25;;;;;;;;;;;23.40;99.90;;;;;;5117244;28;19954;-71
2023/09/14 09:39:51;;;;;;;;;;;24.00;99.90;;;;;;5121876;27;19927;-71
2023/09/14 09:42:18;;;;;;;;;;;24.40;99.90;;;;;;5123818;27;19924;-72
2023/09/14 09:44:44;;;;;;;;;;;24.80;99.90;;;;;;5128229;27;19927;-71
2023/09/14 09:47:12;;;;;;;;;;;25.10;99.90;;;;;;5105202;27;19970;-72
2023/09/14 09:49:38;;;;;;;;;;;25.50;99.90;;;;;;5119521;27;19928;-72
2023/09/14 09:52:08;;;;;;;;;;;25.80;99.90;;;;;;5113001;27;19924;-72
2023/09/14 09:54:35;;;;;;;;;;;26.00;99.90;;;;;;5113686;27;20297;-72
2023/09/14 09:57:03;;;;;;;;;;;26.30;99.90;;;;;;5113472;28;20397;-72
2023/09/14 09:59:30;;;;;;;;;;;26.60;98.90;;;;;;5113858;27;19973;-72
2023/09/14 10:01:56;;;;;;;;;;;26.80;95.50;;;;;;5115911;27;19982;-72
2023/09/14 10:04:26;;;;;;;;;;;26.90;95.00;;;;;;5116749;27;19924;-72
2023/09/14 10:06:52;;;;;;;;;;;26.90;93.30;;;;;;5113724;27;20353;-72
2023/09/14 10:09:17;;;;;;;;;;;27.20;92.80;;;;;;5113210;27;19947;-72
2023/09/14 10:11:43;;;;;;;;;;;27.00;91.70;;;;;;5113136;27;20275;-72
2023/09/14 10:14:13;;;;;;;;;;;26.60;89.70;;;;;;5119788;27;19927;-72
2023/09/14 10:16:40;;;;;;;;;;;26.20;86.60;;;;;;5116365;27;19927;-72
2023/09/14 10:19:06;;;;;;;;;;;26.40;86.20;;;;;;5123416;27;19930;-72
2023/09/14 10:21:32;;;;;;;;;;;26.90;86.80;;;;;;5123820;27;19959;-72
2023/09/14 10:23:58;;;;;;;;;;;27.10;87.10;;;;;;5123158;27;19975;-72
2023/09/14 10:26:24;;;;;;;;;;;26.90;81.80;;;;;;5116146;27;19923;-71
2023/09/14 10:28:50;;;;;;;;;;;26.60;80.60;;;;;;5122471;27;19930;-71
2023/09/14 10:31:16;;;;;;;;;;;26.80;80.10;;;;;;5120062;27;19928;-71
2023/09/14 10:33:49;;;;;;;;;;;26.50;77.50;;;;;;5111871;28;20584;-72
2023/09/14 10:36:14;;;;;;;;;;;26.00;74.60;;;;;;5106175;27;19923;-72
2023/09/14 10:38:43;;;;;;;;;;;25.70;72.10;;;;;;5114081;27;19930;-71
2023/09/14 10:41:08;;;;;;;;;;;25.20;70.20;;;;;;5112750;27;20267;-71
2023/09/14 10:43:34;;;;;;;;;;;24.90;69.80;;;;;;5111748;28;19924;-71
2023/09/14 10:46:01;;;;;;;;;;;24.90;69.80;;;;;;5112496;28;19924;-71
2023/09/14 10:48:29;;;;;;;;;;;24.90;69.00;;;;;;5111649;28;20016;-71
2023/09/14 10:50:58;;;;;;;;;;;24.50;67.40;;;;;;5111242;28;19982;-71
2023/09/14 10:53:24;;;;;;;;;;;24.20;65.90;;;;;;5111987;27;19924;-71
2023/09/14 10:55:50;;;;;;;;;;;24.30;67.90;;;;;;5112530;27;19931;-72
2023/09/14 10:58:16;;;;;;;;;;;25.20;70.70;;;;;;5093873;28;19931;-72
2023/09/14 11:00:42;;;;;;;;;;;25.30;70.00;;;;;;5111668;27;19928;-72
2023/09/14 11:03:08;;;;;;;;;;;24.90;68.40;;;;;;5112488;27;19924;-71
2023/09/14 11:05:40;;;;;;;;;;;24.30;65.20;;;;;;5112702;27;20289;-71
2023/09/14 11:08:06;;;;;;;;;;;23.90;63.80;;;;;;5088382;27;20007;-71
2023/09/14 11:10:34;;;;;;;;;;;23.40;61.80;;;;;;5112308;27;20011;-72
2023/09/14 11:13:18;;;;;;;;;;;23.10;60.50;;;;;;5105331;28;19974;-71
2023/09/14 11:15:46;;;;;;;;;;;22.80;59.60;;;;;;5111975;28;19949;-71
2023/09/14 11:18:18;;;;;;;;;;;22.60;57.80;;;;;;5111952;27;20293;-71
2023/09/14 11:20:44;;;;;;;;;;;22.50;57.40;;;;;;5110601;28;19927;-71
2023/09/14 11:23:10;;;;;;;;;;;22.40;58.30;;;;;;5111516;27;19923;-71
2023/09/14 11:25:37;;;;;;;;;;;22.70;59.60;;;;;;5111641;27;19923;-71
2023/09/14 11:28:04;;;;;;;;;;;23.40;61.20;;;;;;5111640;27;19969;-71
2023/09/14 11:30:30;;;;;;;;;;;23.90;61.40;;;;;;5111032;27;20412;-71
2023/09/14 11:32:57;;;;;;;;;;;24.60;63.60;;;;;;5111239;27;19974;-72
2023/09/14 11:35:32;;;;;;;;;;;25.40;66.80;;;;;;5111273;27;19923;-72
2023/09/14 11:38:02;;;;;;;;;;;26.20;68.90;;;;;;5092725;28;19924;-71
2023/09/14 11:40:32;;;;;;;;;;;26.70;69.10;;;;;;5111081;27;19924;-72
2023/09/14 11:43:07;;;;;;;;;;;27.10;68.40;;;;;;5104859;27;20362;-72
2023/09/14 11:45:38;;;;;;;;;;;27.50;70.00;;;;;;5111968;27;19924;-72
2023/09/14 11:48:04;;;;;;;;;;;28.00;70.40;;;;;;5111996;27;20374;-72
2023/09/14 11:50:30;;;;;;;;;;;28.20;68.70;;;;;;5111649;27;19935;-72
2023/09/14 11:52:57;;;;;;;;;;;28.20;69.40;;;;;;5092948;28;19924;-72
2023/09/14 11:55:22;;;;;;;;;;;28.50;68.70;;;;;;5110753;27;19957;-72
2023/09/14 11:57:48;;;;;;;;;;;28.60;67.90;;;;;;5110448;28;20022;-72
2023/09/14 12:00:14;;;;;;;;;;;28.80;68.70;;;;;;5111223;27;20325;-72
2023/09/14 12:02:40;;;;;;;;;;;29.00;67.50;;;;;;5110409;27;20002;-71
2023/09/14 12:05:06;;;;;;;;;;;29.20;67.20;;;;;;5111346;27;19924;-72
2023/09/14 12:07:31;;;;;;;;;;;29.40;66.50;;;;;;5110917;27;19970;-72
2023/09/14 12:09:57;;;;;;;;;;;29.40;66.40;;;;;;5111005;28;20094;-72
2023/09/14 12:12:26;;;;;;;;;;;29.40;65.50;;;;;;5110394;28;19985;-72
2023/09/14 12:14:52;;;;;;;;;;;29.50;64.20;;;;;;5111915;27;20030;-72
2023/09/14 12:17:21;;;;;;;;;;;29.60;64.40;;;;;;5111249;28;20429;-72
2023/09/14 12:19:48;;;;;;;;;;;29.40;63.20;;;;;;5110946;28;19933;-72
2023/09/14 12:22:15;;;;;;;;;;;29.20;62.60;;;;;;5110831;28;19930;-72
2023/09/14 12:24:41;;;;;;;;;;;29.40;63.00;;;;;;5110219;28;19931;-72
2023/09/14 12:27:07;;;;;;;;;;;29.70;62.50;;;;;;5110712;28;19924;-72
2023/09/14 12:29:33;;;;;;;;;;;30.10;62.90;;;;;;5110997;27;19930;-72
2023/09/14 12:31:58;;;;;;;;;;;30.40;63.80;;;;;;5110648;27;20312;-71
2023/09/14 12:34:24;;;;;;;;;;;30.60;62.80;;;;;;5110886;28;20389;-72
2023/09/14 12:36:49;;;;;;;;;;;30.50;62.80;;;;;;5110412;27;19993;-72
2023/09/14 12:39:15;;;;;;;;;;;30.20;60.10;;;;;;5112012;28;19981;-72
2023/09/14 12:41:41;;;;;;;;;;;29.60;57.10;;;;;;5111181;27;20022;-72
2023/09/14 12:44:06;;;;;;;;;;;29.20;55.50;;;;;;5112601;28;19930;-72
2023/09/14 12:46:32;;;;;;;;;;;29.30;54.80;;;;;;5111060;28;19958;-72
2023/09/14 12:49:00;;;;;;;;;;;29.70;56.60;;;;;;5112586;27;19931;-72
2023/09/14 12:51:26;;;;;;;;;;;30.00;58.00;;;;;;5110194;28;19931;-72
2023/09/14 12:53:54;;;;;;;;;;;30.00;55.90;;;;;;5112826;28;19938;-72
2023/09/14 12:56:20;;;;;;;;;;;29.50;54.00;;;;;;5113264;28;19993;-71
2023/09/14 12:58:46;;;;;;;;;;;29.40;53.30;;;;;;5113447;28;20306;-72
2023/09/14 13:01:11;;;;;;;;;;;29.90;54.40;;;;;;5087611;28;19931;-72
2023/09/14 13:03:39;;;;;;;;;;;30.40;54.80;;;;;;5121761;28;19988;-72
2023/09/14 13:06:05;;;;;;;;;;;30.70;55.90;;;;;;5095496;28;19931;-72
2023/09/14 13:08:49;;;;;;;;;;;31.10;57.50;;;;;;5113928;28;20301;-72
2023/09/14 13:11:21;;;;;;;;;;;31.40;56.50;;;;;;5111360;28;19923;-72
2023/09/14 13:13:46;;;;;;;;;;;31.30;56.30;;;;;;5111846;27;19927;-72
2023/09/14 13:16:15;;;;;;;;;;;31.10;55.00;;;;;;5114873;27;19949;-72
2023/09/14 13:18:40;;;;;;;;;;;30.90;54.50;;;;;;5129084;27;19962;-72
2023/09/14 13:21:06;;;;;;;;;;;31.00;67.20;;;;;;5122269;27;19925;-72
2023/09/14 13:23:31;;;;;;;;;;;31.20;54.60;;;;;;5113891;28;20293;-72
2023/09/14 13:25:57;;;;;;;;;;;31.40;54.40;;;;;;5113595;27;19990;-72
2023/09/14 13:28:24;;;;;;;;;;;31.50;54.20;;;;;;5113729;27;19980;-72
2023/09/14 13:30:50;;;;;;;;;;;31.60;53.90;;;;;;5114415;27;19931;-72
2023/09/14 13:33:16;;;;;;;;;;;31.70;53.30;;;;;;5114132;27;19924;-72
2023/09/14 13:35:42;;;;;;;;;;;31.80;52.70;;;;;;5114522;27;19931;-72
2023/09/14 13:38:08;;;;;;;;;;;31.90;53.30;;;;;;5114007;27;19924;-72
2023/09/14 13:40:33;;;;;;;;;;;32.00;53.20;;;;;;5114238;27;19924;-72
2023/09/14 13:43:03;;;;;;;;;;;32.10;52.90;;;;;;5113330;28;20373;-72
2023/09/14 13:45:29;;;;;;;;;;;32.00;53.20;;;;;;5113389;27;20291;-72
2023/09/14 13:47:55;;;;;;;;;;;31.50;51.30;;;;;;5113806;27;20033;-72
2023/09/14 13:50:20;;;;;;;;;;;30.40;47.60;;;;;;5113598;28;20374;-72
2023/09/14 13:52:46;;;;;;;;;;;29.40;44.00;;;;;;5113036;27;19924;-72
2023/09/14 13:55:12;;;;;;;;;;;28.60;40.40;;;;;;5113211;27;19924;-71
2023/09/14 13:57:38;;;;;;;;;;;28.00;38.20;;;;;;5113277;27;19935;-71
2023/09/14 14:00:07;;;;;;;;;;;27.40;36.30;;;;;;5114455;27;19959;-72
2023/09/14 14:02:34;;;;;;;;;;;27.00;35.30;;;;;;5095096;28;19923;-71
2023/09/14 14:04:59;;;;;;;;;;;26.70;34.20;;;;;;5113606;27;19924;-71
2023/09/14 14:07:25;;;;;;;;;;;26.40;32.70;;;;;;5112692;28;19965;-71
2023/09/14 14:09:50;;;;;;;;;;;26.00;31.50;;;;;;5112596;28;19924;-71
2023/09/14 14:12:16;;;;;;;;;;;25.80;31.10;;;;;;5113517;27;19941;-71